Time;durP1;ratioP1;P1;durP2;ratioP2;P2;SDS_P1;SDS_P2;PMS_P1;PMS_P2;Temp;Humidity;BMP_temperature;BMP_pressure;BME280_temperature;BME280_humidity;BME280_pressure;Samples;Min_cycle;Max_cycle;Signal;HPM_P1;HPM_P2
2023/09/26 00:00:31;;;;;;;3.50;3.30;;;;;;;;;;5045683;28;20223;-66
2023/09/26 00:02:59;;;;;;;3.33;3.13;;;;;;;;;;5045137;28;20207;-66
2023/09/26 00:05:27;;;;;;;3.13;2.83;;;;;;;;;;5045591;28;20203;-66
2023/09/26 00:07:55;;;;;;;3.53;3.20;;;;;;;;;;5045218;28;20235;-66
2023/09/26 00:10:22;;;;;;;3.23;3.03;;;;;;;;;;5045404;28;20203;-66
2023/09/26 00:12:49;;;;;;;3.17;2.97;;;;;;;;;;5031822;28;20342;-66
2023/09/26 00:15:16;;;;;;;3.83;3.40;;;;;;;;;;5044061;28;20203;-66
2023/09/26 00:17:43;;;;;;;2.93;2.83;;;;;;;;;;5045405;28;20232;-66
2023/09/26 00:20:27;;;;;;;3.03;2.83;;;;;;;;;;5044266;28;20235;-66
2023/09/26 00:22:56;;;;;;;3.70;3.10;;;;;;;;;;5044089;28;20944;-66
2023/09/26 00:25:23;;;;;;;3.77;3.47;;;;;;;;;;5036740;28;20211;-66
2023/09/26 00:27:50;;;;;;;3.13;2.93;;;;;;;;;;5044451;28;20222;-66
2023/09/26 00:30:17;;;;;;;3.33;3.13;;;;;;;;;;5039892;28;20200;-66
2023/09/26 00:32:44;;;;;;;3.27;3.07;;;;;;;;;;5041484;28;20255;-66
2023/09/26 00:35:12;;;;;;;3.73;3.50;;;;;;;;;;5048067;28;20638;-66
2023/09/26 00:37:39;;;;;;;3.10;2.90;;;;;;;;;;5047373;28;20219;-66
2023/09/26 00:40:14;;;;;;;3.60;3.10;;;;;;;;;;5049115;28;20211;-66
2023/09/26 00:42:41;;;;;;;3.40;3.10;;;;;;;;;;5048857;28;20409;-66
2023/09/26 00:45:09;;;;;;;4.03;3.73;;;;;;;;;;5048155;28;20208;-66
2023/09/26 00:47:37;;;;;;;3.10;3.00;;;;;;;;;;5044753;28;20207;-66
2023/09/26 00:50:05;;;;;;;3.33;3.13;;;;;;;;;;5049042;28;20203;-66
2023/09/26 00:52:32;;;;;;;3.07;2.97;;;;;;;;;;5048414;28;20230;-66
2023/09/26 00:55:02;;;;;;;3.97;3.10;;;;;;;;;;5049201;28;20238;-66
2023/09/26 00:57:32;;;;;;;2.97;2.83;;;;;;;;;;5048666;28;20212;-66
2023/09/26 00:59:59;;;;;;;4.17;3.13;;;;;;;;;;5049657;28;20278;-66
2023/09/26 01:02:26;;;;;;;3.63;3.33;;;;;;;;;;5048001;28;20211;-66
2023/09/26 01:04:54;;;;;;;3.57;3.23;;;;;;;;;;5048507;28;20659;-66
2023/09/26 01:07:22;;;;;;;4.10;3.43;;;;;;;;;;5048529;28;20203;-66
2023/09/26 01:09:49;;;;;;;3.43;2.90;;;;;;;;;;5049213;28;20674;-66
2023/09/26 01:12:16;;;;;;;3.13;3.03;;;;;;;;;;5048652;28;20200;-66
2023/09/26 01:14:44;;;;;;;3.60;3.40;;;;;;;;;;5048752;28;20859;-67
2023/09/26 01:17:12;;;;;;;3.17;3.00;;;;;;;;;;5049029;28;20215;-66
2023/09/26 01:19:40;;;;;;;3.10;2.97;;;;;;;;;;5046761;28;20247;-66
2023/09/26 01:22:07;;;;;;;3.13;3.00;;;;;;;;;;5048029;28;20755;-66
2023/09/26 01:24:37;;;;;;;2.90;2.80;;;;;;;;;;5049058;28;20725;-65
2023/09/26 01:27:05;;;;;;;3.37;3.07;;;;;;;;;;5048375;28;20208;-65
2023/09/26 01:29:32;;;;;;;3.67;3.37;;;;;;;;;;5048896;28;20250;-66
2023/09/26 01:31:59;;;;;;;3.20;3.00;;;;;;;;;;5048622;28;20191;-65
2023/09/26 01:34:26;;;;;;;2.93;2.83;;;;;;;;;;5042520;28;20239;-66
2023/09/26 01:36:54;;;;;;;4.23;3.30;;;;;;;;;;5048136;28;20218;-65
2023/09/26 01:39:21;;;;;;;3.20;3.10;;;;;;;;;;5047653;28;20204;-66
2023/09/26 01:41:49;;;;;;;3.50;3.37;;;;;;;;;;5048408;28;20218;-65
2023/09/26 01:44:16;;;;;;;3.20;2.90;;;;;;;;;;5047350;28;20196;-66
2023/09/26 01:46:43;;;;;;;3.47;3.27;;;;;;;;;;5048018;28;20670;-66
2023/09/26 01:49:10;;;;;;;3.57;3.40;;;;;;;;;;5047951;28;20703;-66
2023/09/26 01:51:38;;;;;;;3.40;3.20;;;;;;;;;;5047885;28;20723;-66
2023/09/26 01:54:05;;;;;;;3.80;3.50;;;;;;;;;;5047051;28;20231;-68
2023/09/26 01:56:33;;;;;;;3.60;3.40;;;;;;;;;;5047871;28;20222;-66
2023/09/26 01:59:01;;;;;;;3.10;3.00;;;;;;;;;;5047690;28;20961;-66
2023/09/26 02:01:28;;;;;;;3.23;2.90;;;;;;;;;;5045201;28;20270;-66
2023/09/26 02:03:55;;;;;;;3.87;3.63;;;;;;;;;;5047544;28;20290;-66
2023/09/26 02:06:22;;;;;;;3.40;3.17;;;;;;;;;;5044934;28;20600;-66
2023/09/26 02:08:49;;;;;;;3.80;3.10;;;;;;;;;;5048204;28;20623;-66
2023/09/26 02:11:16;;;;;;;3.30;3.03;;;;;;;;;;5047332;28;20216;-66
2023/09/26 02:13:43;;;;;;;3.37;3.13;;;;;;;;;;5047665;28;20234;-66
2023/09/26 02:16:12;;;;;;;3.63;3.13;;;;;;;;;;5047534;28;20204;-66
2023/09/26 02:18:40;;;;;;;3.27;3.17;;;;;;;;;;5048035;28;20282;-67
2023/09/26 02:21:07;;;;;;;3.63;3.43;;;;;;;;;;5047580;28;20247;-67
2023/09/26 02:23:34;;;;;;;3.80;3.50;;;;;;;;;;5047983;28;20546;-65
2023/09/26 02:26:01;;;;;;;8.50;3.60;;;;;;;;;;5047307;28;20564;-66
2023/09/26 02:28:28;;;;;;;3.47;3.17;;;;;;;;;;5045680;28;20230;-66
2023/09/26 02:30:55;;;;;;;3.97;3.57;;;;;;;;;;5032832;28;20200;-66
2023/09/26 02:33:23;;;;;;;3.70;3.50;;;;;;;;;;5047556;28;20250;-66
2023/09/26 02:35:50;;;;;;;3.67;3.40;;;;;;;;;;5047897;28;20206;-66
2023/09/26 02:38:17;;;;;;;3.30;3.10;;;;;;;;;;5047262;28;20200;-66
2023/09/26 02:40:44;;;;;;;3.30;3.10;;;;;;;;;;5046055;28;20233;-66
2023/09/26 02:43:11;;;;;;;3.87;3.57;;;;;;;;;;5046664;28;20209;-66
2023/09/26 02:45:38;;;;;;;4.50;3.07;;;;;;;;;;5046000;28;20212;-65
2023/09/26 02:48:06;;;;;;;4.03;3.30;;;;;;;;;;5046845;28;20211;-66
2023/09/26 02:50:34;;;;;;;3.43;3.20;;;;;;;;;;5045852;28;20310;-66
2023/09/26 02:53:02;;;;;;;4.03;3.80;;;;;;;;;;5046621;28;20210;-66
2023/09/26 02:55:29;;;;;;;3.77;3.47;;;;;;;;;;5046426;28;20656;-66
2023/09/26 02:57:56;;;;;;;3.43;3.23;;;;;;;;;;5047242;28;20222;-66
2023/09/26 03:00:23;;;;;;;3.37;3.17;;;;;;;;;;5044101;28;20211;-66
2023/09/26 03:02:50;;;;;;;5.73;3.57;;;;;;;;;;5035798;28;20291;-66
2023/09/26 03:05:17;;;;;;;3.27;3.00;;;;;;;;;;5043127;28;20205;-66
2023/09/26 03:07:46;;;;;;;3.50;3.30;;;;;;;;;;5039640;28;20204;-66
2023/09/26 03:10:13;;;;;;;4.17;3.57;;;;;;;;;;5046567;28;20207;-66
2023/09/26 03:12:44;;;;;;;3.50;3.30;;;;;;;;;;5046646;28;20207;-66
2023/09/26 03:15:11;;;;;;;3.47;3.20;;;;;;;;;;5046790;28;20709;-66
2023/09/26 03:17:38;;;;;;;3.47;3.27;;;;;;;;;;5042720;28;20224;-66
2023/09/26 03:20:09;;;;;;;3.83;3.60;;;;;;;;;;5026644;28;20921;-65
2023/09/26 03:22:36;;;;;;;3.40;3.20;;;;;;;;;;5045808;28;20211;-65
2023/09/26 03:25:05;;;;;;;3.27;3.17;;;;;;;;;;5046770;28;20873;-65
2023/09/26 03:27:32;;;;;;;4.10;3.50;;;;;;;;;;5046583;28;20597;-66
2023/09/26 03:29:59;;;;;;;3.33;3.23;;;;;;;;;;5045913;28;20509;-66
2023/09/26 03:32:26;;;;;;;3.60;3.30;;;;;;;;;;5046040;28;20298;-66
2023/09/26 03:34:53;;;;;;;3.43;3.20;;;;;;;;;;5045601;28;20247;-66
2023/09/26 03:37:20;;;;;;;3.43;3.13;;;;;;;;;;5038258;28;20214;-66
2023/09/26 03:39:48;;;;;;;3.47;3.27;;;;;;;;;;5045862;28;20688;-66
2023/09/26 03:42:16;;;;;;;3.97;3.30;;;;;;;;;;5045654;28;21027;-66
2023/09/26 03:44:43;;;;;;;3.67;3.37;;;;;;;;;;5045900;28;20208;-66
2023/09/26 03:47:10;;;;;;;2.97;2.87;;;;;;;;;;5044640;28;20211;-66
2023/09/26 03:49:37;;;;;;;3.20;2.90;;;;;;;;;;5046056;28;20207;-66
2023/09/26 03:52:05;;;;;;;3.87;3.67;;;;;;;;;;5045772;28;20203;-66
2023/09/26 03:54:32;;;;;;;3.93;3.70;;;;;;;;;;5045790;28;20223;-66
2023/09/26 03:56:59;;;;;;;5.43;3.90;;;;;;;;;;5043663;28;20287;-67
2023/09/26 03:59:27;;;;;;;4.07;3.80;;;;;;;;;;5044988;28;20208;-67
2023/09/26 04:01:54;;;;;;;4.37;3.80;;;;;;;;;;5043039;28;20598;-67
2023/09/26 04:04:21;;;;;;;3.87;3.57;;;;;;;;;;5045001;28;20196;-67
2023/09/26 04:06:48;;;;;;;4.30;4.00;;;;;;;;;;5045631;28;20259;-66
2023/09/26 04:09:15;;;;;;;4.07;3.87;;;;;;;;;;5044353;28;20665;-67
2023/09/26 04:11:42;;;;;;;4.60;4.20;;;;;;;;;;5045120;28;20463;-66
2023/09/26 04:14:09;;;;;;;4.87;4.07;;;;;;;;;;5046061;28;20227;-67
2023/09/26 04:16:39;;;;;;;5.23;3.80;;;;;;;;;;5044746;28;20680;-67
2023/09/26 04:19:06;;;;;;;3.97;3.70;;;;;;;;;;5044638;28;20326;-66
2023/09/26 04:21:33;;;;;;;3.63;3.47;;;;;;;;;;5045475;28;20760;-66
2023/09/26 04:24:04;;;;;;;4.57;4.30;;;;;;;;;;5043933;28;20215;-67
2023/09/26 04:26:31;;;;;;;3.80;3.57;;;;;;;;;;5046087;28;20265;-67
2023/09/26 04:28:58;;;;;;;4.33;3.93;;;;;;;;;;5046119;28;20728;-66
2023/09/26 04:31:25;;;;;;;4.60;4.20;;;;;;;;;;5046071;28;20214;-66
2023/09/26 04:33:53;;;;;;;4.40;4.00;;;;;;;;;;5044916;28;20215;-66
2023/09/26 04:36:20;;;;;;;4.27;3.97;;;;;;;;;;5043188;28;20237;-66
2023/09/26 04:38:47;;;;;;;4.57;4.17;;;;;;;;;;5045607;28;20341;-66
2023/09/26 04:41:16;;;;;;;3.83;3.57;;;;;;;;;;5044355;28;20211;-66
2023/09/26 04:43:43;;;;;;;4.33;3.93;;;;;;;;;;5036276;28;20466;-66
2023/09/26 04:46:13;;;;;;;4.00;3.80;;;;;;;;;;5039038;28;20207;-66
2023/09/26 04:48:40;;;;;;;4.13;3.90;;;;;;;;;;5045675;28;20202;-66
2023/09/26 04:51:10;;;;;;;4.37;3.67;;;;;;;;;;5043449;28;20199;-67
2023/09/26 04:53:37;;;;;;;4.13;3.73;;;;;;;;;;5045090;28;20219;-67
2023/09/26 04:56:04;;;;;;;5.83;3.77;;;;;;;;;;5046412;28;20220;-66
2023/09/26 04:58:32;;;;;;;3.83;3.50;;;;;;;;;;5044806;28;20204;-66
2023/09/26 05:01:00;;;;;;;4.30;3.90;;;;;;;;;;5037658;28;20204;-66
2023/09/26 05:03:27;;;;;;;4.53;4.23;;;;;;;;;;5037469;28;20204;-66
2023/09/26 05:05:54;;;;;;;4.20;3.80;;;;;;;;;;5045410;28;20200;-66
2023/09/26 05:08:23;;;;;;;4.27;3.73;;;;;;;;;;5032541;28;20216;-67
2023/09/26 05:10:50;;;;;;;4.30;4.00;;;;;;;;;;5043005;28;20701;-66
2023/09/26 05:13:17;;;;;;;4.83;4.00;;;;;;;;;;5040173;28;20552;-66
2023/09/26 05:15:44;;;;;;;4.40;3.80;;;;;;;;;;5039957;28;20247;-66
2023/09/26 05:18:11;;;;;;;4.10;3.70;;;;;;;;;;5029898;28;20302;-66
2023/09/26 05:20:39;;;;;;;4.30;4.00;;;;;;;;;;5033202;28;20239;-66
2023/09/26 05:23:06;;;;;;;3.63;3.37;;;;;;;;;;5048520;28;20294;-67
2023/09/26 05:25:35;;;;;;;4.00;3.70;;;;;;;;;;5042684;28;20212;-66
2023/09/26 05:28:02;;;;;;;7.67;3.83;;;;;;;;;;5047725;28;20216;-65
2023/09/26 05:30:30;;;;;;;5.10;4.40;;;;;;;;;;5048929;28;20208;-66
2023/09/26 05:32:57;;;;;;;3.67;3.47;;;;;;;;;;5047008;28;20204;-64
2023/09/26 05:35:24;;;;;;;4.03;3.83;;;;;;;;;;5048464;28;20246;-66
2023/09/26 05:37:52;;;;;;;4.10;3.80;;;;;;;;;;5046584;28;20211;-67
2023/09/26 05:40:19;;;;;;;4.20;3.90;;;;;;;;;;5048276;28;20215;-65
2023/09/26 05:42:47;;;;;;;4.00;3.70;;;;;;;;;;5048084;28;20204;-64
2023/09/26 05:45:16;;;;;;;6.60;3.67;;;;;;;;;;5048738;28;20218;-64
2023/09/26 05:47:43;;;;;;;7.20;3.87;;;;;;;;;;5047849;28;20752;-65
2023/09/26 05:50:11;;;;;;;4.57;4.17;;;;;;;;;;5048370;28;20578;-66
2023/09/26 05:52:38;;;;;;;4.57;4.17;;;;;;;;;;5048833;28;20215;-66
2023/09/26 05:55:06;;;;;;;4.70;4.17;;;;;;;;;;5046719;28;20227;-66
2023/09/26 05:57:33;;;;;;;4.30;4.00;;;;;;;;;;5045829;28;20208;-66
2023/09/26 06:00:01;;;;;;;4.70;4.30;;;;;;;;;;5039590;28;20204;-66
2023/09/26 06:02:28;;;;;;;5.10;4.70;;;;;;;;;;5047466;28;20208;-65
2023/09/26 06:04:55;;;;;;;6.33;4.30;;;;;;;;;;5047945;28;20225;-66
2023/09/26 06:07:22;;;;;;;5.10;4.60;;;;;;;;;;5046921;28;20226;-66
2023/09/26 06:09:49;;;;;;;4.27;3.97;;;;;;;;;;5028372;28;20219;-67
2023/09/26 06:12:16;;;;;;;5.40;4.90;;;;;;;;;;5028081;28;20212;-66
2023/09/26 06:14:43;;;;;;;7.43;4.67;;;;;;;;;;5030656;28;20235;-67
2023/09/26 06:17:12;;;;;;;4.83;4.37;;;;;;;;;;5028314;28;20670;-67
2023/09/26 06:19:44;;;;;;;5.00;4.67;;;;;;;;;;5027976;28;20240;-67
2023/09/26 06:22:11;;;;;;;5.43;4.93;;;;;;;;;;5039908;28;20212;-67
2023/09/26 06:24:38;;;;;;;5.60;4.40;;;;;;;;;;5048053;28;20219;-66
2023/09/26 06:27:05;;;;;;;5.13;4.73;;;;;;;;;;5047015;28;20215;-67
2023/09/26 06:29:33;;;;;;;5.80;4.33;;;;;;;;;;5035720;28;20215;-67
2023/09/26 06:32:00;;;;;;;13.23;4.43;;;;;;;;;;5027987;28;20697;-65
2023/09/26 06:34:28;;;;;;;5.00;4.50;;;;;;;;;;5027498;28;20759;-64
2023/09/26 06:36:55;;;;;;;5.23;4.73;;;;;;;;;;5027288;28;20220;-65
2023/09/26 06:39:22;;;;;;;5.40;4.90;;;;;;;;;;5026783;28;20209;-65
2023/09/26 06:41:49;;;;;;;8.23;4.60;;;;;;;;;;5027197;28;20736;-65
2023/09/26 06:44:16;;;;;;;5.77;4.53;;;;;;;;;;5031093;28;20208;-65
2023/09/26 06:46:43;;;;;;;4.93;4.20;;;;;;;;;;5047031;28;20210;-65
2023/09/26 06:49:10;;;;;;;4.73;4.20;;;;;;;;;;5046675;28;20207;-65
2023/09/26 06:51:39;;;;;;;6.30;4.30;;;;;;;;;;5046258;28;20268;-65
2023/09/26 06:54:06;;;;;;;7.03;4.70;;;;;;;;;;5043458;28;20211;-66
2023/09/26 06:56:33;;;;;;;5.53;5.13;;;;;;;;;;5045746;28;20708;-66
2023/09/26 06:59:00;;;;;;;5.97;5.47;;;;;;;;;;5046379;28;20256;-63
2023/09/26 07:01:27;;;;;;;6.35;5.65;;;;;;;;;;5045564;28;20596;-66
2023/09/26 07:03:54;;;;;;;7.60;5.20;;;;;;;;;;5045240;28;20199;-69
2023/09/26 07:06:21;;;;;;;7.88;5.43;;;;;;;;;;5034088;28;20207;-68
2023/09/26 07:08:54;;;;;;;6.53;5.50;;;;;;;;;;5033048;28;20200;-67
2023/09/26 07:11:22;;;;;;;5.80;4.95;;;;;;;;;;5032559;28;20212;-67
2023/09/26 07:13:50;;;;;;;6.00;5.50;;;;;;;;;;5028874;28;20234;-66
2023/09/26 07:16:17;;;;;;;8.68;5.22;;;;;;;;;;5046106;28;20219;-66
2023/09/26 07:18:44;;;;;;;6.87;5.40;;;;;;;;;;5046040;28;20238;-64
2023/09/26 07:21:11;;;;;;;6.73;5.33;;;;;;;;;;5046730;28;20239;-66
2023/09/26 07:23:39;;;;;;;6.63;5.72;;;;;;;;;;5045978;28;20211;-65
2023/09/26 07:26:08;;;;;;;6.15;5.60;;;;;;;;;;5046894;28;20200;-65
2023/09/26 07:28:35;;;;;;;8.55;5.72;;;;;;;;;;5041202;28;20220;-67
2023/09/26 07:31:04;;;;;;;5.95;5.45;;;;;;;;;;5040413;28;20200;-67
2023/09/26 07:33:31;;;;;;;5.93;5.33;;;;;;;;;;5043457;28;20212;-68
2023/09/26 07:35:58;;;;;;;7.50;6.00;;;;;;;;;;5045583;28;20242;-67
2023/09/26 07:38:25;;;;;;;5.22;4.93;;;;;;;;;;5046317;28;20216;-67
2023/09/26 07:40:52;;;;;;;6.27;5.60;;;;;;;;;;5045585;28;20254;-66
2023/09/26 07:43:21;;;;;;;6.57;5.25;;;;;;;;;;5045245;28;20637;-67
2023/09/26 07:45:48;;;;;;;5.57;5.13;;;;;;;;;;5045960;28;20256;-66
2023/09/26 07:48:15;;;;;;;5.75;5.00;;;;;;;;;;5045875;28;20265;-67
2023/09/26 07:50:42;;;;;;;5.32;4.82;;;;;;;;;;5045796;28;20214;-67
2023/09/26 07:53:10;;;;;;;6.05;4.32;;;;;;;;;;5045173;28;20207;-66
2023/09/26 07:55:37;;;;;;;5.90;4.22;;;;;;;;;;5037093;28;20323;-66
2023/09/26 07:58:04;;;;;;;3.88;3.67;;;;;;;;;;5036900;28;20261;-67
2023/09/26 08:00:32;;;;;;;3.72;3.53;;;;;;;;;;5030233;28;20200;-66
2023/09/26 08:03:00;;;;;;;3.97;3.67;;;;;;;;;;5028537;28;20588;-65
2023/09/26 08:05:27;;;;;;;3.80;3.53;;;;;;;;;;5041435;28;20283;-65
2023/09/26 08:07:54;;;;;;;3.17;3.08;;;;;;;;;;5045571;28;20959;-66
2023/09/26 08:10:21;;;;;;;3.30;3.10;;;;;;;;;;5045716;28;20265;-66
2023/09/26 08:12:48;;;;;;;3.20;2.92;;;;;;;;;;5044617;28;20212;-65
2023/09/26 08:15:15;;;;;;;3.45;3.15;;;;;;;;;;5045714;28;20231;-66
2023/09/26 08:17:43;;;;;;;2.80;2.60;;;;;;;;;;5045143;28;20310;-66
2023/09/26 08:20:11;;;;;;;4.22;3.15;;;;;;;;;;5044799;28;20242;-66
2023/09/26 08:22:38;;;;;;;3.60;2.97;;;;;;;;;;5043511;28;20212;-64
2023/09/26 08:25:05;;;;;;;3.38;3.17;;;;;;;;;;5044611;28;20223;-63
2023/09/26 08:27:32;;;;;;;3.10;2.90;;;;;;;;;;5045095;28;20200;-74
2023/09/26 08:30:00;;;;;;;3.00;2.90;;;;;;;;;;5043998;28;20257;-67
2023/09/26 08:32:27;;;;;;;3.20;2.80;;;;;;;;;;5045248;28;20326;-71
2023/09/26 08:34:56;;;;;;;2.78;2.55;;;;;;;;;;5041334;28;20301;-67
2023/09/26 08:37:23;;;;;;;4.07;2.80;;;;;;;;;;5044075;28;20281;-66
2023/09/26 08:39:51;;;;;;;2.90;2.78;;;;;;;;;;5044633;28;20219;-66
2023/09/26 08:42:19;;;;;;;2.50;2.40;;;;;;;;;;5044833;28;20310;-66
2023/09/26 08:44:46;;;;;;;2.78;2.67;;;;;;;;;;5044593;28;20543;-66
2023/09/26 08:47:13;;;;;;;3.20;2.70;;;;;;;;;;5044576;28;20211;-64
2023/09/26 08:49:42;;;;;;;2.72;2.58;;;;;;;;;;5044453;28;20210;-67
2023/09/26 08:52:11;;;;;;;2.90;2.78;;;;;;;;;;5041477;28;20208;-67
2023/09/26 08:54:38;;;;;;;2.85;2.67;;;;;;;;;;5040752;28;20204;-67
2023/09/26 08:57:05;;;;;;;2.20;2.20;;;;;;;;;;5047538;28;20231;-68
2023/09/26 08:59:32;;;;;;;2.10;2.10;;;;;;;;;;5040271;28;20212;-67
2023/09/26 09:01:59;;;;;;;2.50;2.35;;;;;;;;;;5045006;28;20200;-70
2023/09/26 09:04:26;;;;;;;3.03;2.33;;;;;;;;;;5046983;28;20204;-70
2023/09/26 09:07:02;;;;;;;2.25;2.13;;;;;;;;;;5038395;28;20212;-70
2023/09/26 09:09:31;;;;;;;2.05;2.03;;;;;;;;;;5042448;28;20251;-67
2023/09/26 09:11:58;;;;;;;2.50;2.40;;;;;;;;;;5046141;28;20200;-68
2023/09/26 09:14:32;;;;;;;3.22;2.22;;;;;;;;;;5045994;28;20215;-68
2023/09/26 09:16:59;;;;;;;2.88;2.58;;;;;;;;;;5047326;28;20285;-68
2023/09/26 09:19:45;;;;;;;2.40;2.17;;;;;;;;;;5042758;28;20371;-68
2023/09/26 09:22:15;;;;;;;4.80;2.47;;;;;;;;;;5041239;28;20689;-68
2023/09/26 09:24:44;;;;;;;2.15;2.05;;;;;;;;;;5041041;28;20228;-68
2023/09/26 09:27:12;;;;;;;2.33;2.28;;;;;;;;;;5038444;28;20203;-71
2023/09/26 09:29:40;;;;;;;2.40;2.20;;;;;;;;;;5041061;28;20248;-69
2023/09/26 09:32:08;;;;;;;2.67;2.13;;;;;;;;;;5040283;28;20220;-68
2023/09/26 09:34:36;;;;;;;2.00;1.77;;;;;;;;;;5041631;28;20302;-69
2023/09/26 09:37:03;;;;;;;1.90;1.80;;;;;;;;;;5045426;28;20224;-69
2023/09/26 09:39:32;;;;;;;2.28;2.15;;;;;;;;;;5043616;28;20208;-69
2023/09/26 09:42:03;;;;;;;2.25;2.15;;;;;;;;;;5044673;28;20211;-69
2023/09/26 09:44:30;;;;;;;2.38;2.15;;;;;;;;;;5032814;28;20693;-70
2023/09/26 09:47:03;;;;;;;2.13;2.13;;;;;;;;;;5038257;28;20239;-69
2023/09/26 09:49:33;;;;;;;2.67;2.38;;;;;;;;;;5043574;28;20320;-64
2023/09/26 09:52:03;;;;;;;2.00;2.00;;;;;;;;;;5046768;28;20296;-67
2023/09/26 09:54:33;;;;;;;2.28;2.17;;;;;;;;;;5037937;28;20463;-66
2023/09/26 09:57:09;;;;;;;2.53;2.05;;;;;;;;;;5046365;28;20262;-62
2023/09/26 09:59:37;;;;;;;3.08;2.20;;;;;;;;;;5032436;28;20214;-63
2023/09/26 10:02:05;;;;;;;3.42;2.00;;;;;;;;;;5044728;28;20264;-62
2023/09/26 10:04:32;;;;;;;1.98;1.90;;;;;;;;;;5044313;28;20273;-62
2023/09/26 10:06:59;;;;;;;2.42;2.22;;;;;;;;;;5031140;28;20303;-62
2023/09/26 10:09:27;;;;;;;2.00;1.95;;;;;;;;;;5035422;28;20208;-63
2023/09/26 10:11:54;;;;;;;2.50;2.33;;;;;;;;;;5046287;28;20207;-63
2023/09/26 10:14:23;;;;;;;3.45;2.35;;;;;;;;;;5044191;28;20222;-63
2023/09/26 10:16:50;;;;;;;2.22;2.13;;;;;;;;;;5025739;28;20282;-63
2023/09/26 10:19:18;;;;;;;2.22;2.13;;;;;;;;;;5036148;28;20223;-63
2023/09/26 10:21:45;;;;;;;2.03;2.03;;;;;;;;;;5043323;28;20912;-63
2023/09/26 10:24:27;;;;;;;2.70;2.10;;;;;;;;;;5046153;28;20261;-63
2023/09/26 10:26:54;;;;;;;1.80;1.70;;;;;;;;;;5045184;28;20219;-64
2023/09/26 10:29:26;;;;;;;2.08;1.98;;;;;;;;;;5040702;28;20217;-67
2023/09/26 10:31:55;;;;;;;2.13;2.03;;;;;;;;;;5032690;28;20666;-65
2023/09/26 10:34:27;;;;;;;2.95;2.20;;;;;;;;;;5038693;28;20692;-64
2023/09/26 10:36:55;;;;;;;1.80;1.80;;;;;;;;;;5043470;28;20717;-64
2023/09/26 10:39:33;;;;;;;2.05;1.95;;;;;;;;;;5034120;28;20753;-65
2023/09/26 10:42:01;;;;;;;2.20;2.10;;;;;;;;;;5038111;28;20338;-70
2023/09/26 10:44:29;;;;;;;3.13;2.13;;;;;;;;;;5034954;28;20214;-69
2023/09/26 10:46:56;;;;;;;2.33;2.22;;;;;;;;;;5029925;28;20801;-70
2023/09/26 10:49:25;;;;;;;2.30;2.20;;;;;;;;;;5030356;28;20204;-68
2023/09/26 10:51:52;;;;;;;3.78;2.65;;;;;;;;;;5044468;28;20208;-67
2023/09/26 10:54:19;;;;;;;2.50;2.30;;;;;;;;;;5042223;28;20791;-68
2023/09/26 10:56:49;;;;;;;6.68;3.15;;;;;;;;;;5044398;28;20227;-68
2023/09/26 10:59:18;;;;;;;19.58;6.45;;;;;;;;;;5044424;28;20693;-68
2023/09/26 11:01:46;;;;;;;8.30;3.88;;;;;;;;;;5044663;28;20211;-66
2023/09/26 11:04:13;;;;;;;15.38;3.85;;;;;;;;;;5041079;28;20215;-66
2023/09/26 11:06:41;;;;;;;2.78;2.58;;;;;;;;;;5024491;28;20319;-66
2023/09/26 11:09:12;;;;;;;14.60;4.43;;;;;;;;;;5035714;28;20299;-64
2023/09/26 11:11:39;;;;;;;3.15;2.38;;;;;;;;;;5044071;28;20215;-66
2023/09/26 11:14:07;;;;;;;14.00;5.93;;;;;;;;;;5044524;28;20211;-66
2023/09/26 11:16:34;;;;;;;2.47;2.38;;;;;;;;;;5043518;28;20226;-75
2023/09/26 11:19:03;;;;;;;12.10;3.42;;;;;;;;;;5044322;28;20223;-64
2023/09/26 11:21:30;;;;;;;3.55;3.22;;;;;;;;;;5043834;28;20204;-65
2023/09/26 11:23:59;;;;;;;10.38;3.88;;;;;;;;;;5043763;28;20956;-65
2023/09/26 11:26:26;;;;;;;4.07;2.65;;;;;;;;;;5044618;28;20721;-63
2023/09/26 11:28:54;;;;;;;4.60;2.97;;;;;;;;;;5042288;28;20207;-65
2023/09/26 11:31:21;;;;;;;2.55;2.45;;;;;;;;;;5032300;28;20214;-64
2023/09/26 11:33:48;;;;;;;2.70;2.60;;;;;;;;;;5039670;28;20658;-65
2023/09/26 11:36:17;;;;;;;2.67;2.58;;;;;;;;;;5044256;28;20216;-65
2023/09/26 11:38:47;;;;;;;5.78;3.65;;;;;;;;;;5050783;28;20234;-65
2023/09/26 11:41:14;;;;;;;3.88;1.88;;;;;;;;;;5036081;28;20215;-65
2023/09/26 11:43:42;;;;;;;2.72;2.47;;;;;;;;;;5036513;28;20207;-65
2023/09/26 11:46:09;;;;;;;1.92;1.92;;;;;;;;;;5039273;28;20609;-65
2023/09/26 11:48:36;;;;;;;2.92;2.63;;;;;;;;;;5041033;28;20651;-65
2023/09/26 11:51:04;;;;;;;2.80;2.55;;;;;;;;;;5044009;28;20666;-65
2023/09/26 11:53:32;;;;;;;2.65;2.55;;;;;;;;;;5039895;28;20212;-65
2023/09/26 11:55:59;;;;;;;2.90;2.70;;;;;;;;;;5042570;28;20227;-64
2023/09/26 11:58:26;;;;;;;2.60;2.50;;;;;;;;;;5039909;28;20211;-64
2023/09/26 12:00:54;;;;;;;3.03;2.72;;;;;;;;;;5030701;28;20220;-64
2023/09/26 12:03:21;;;;;;;2.67;2.58;;;;;;;;;;5038488;28;20575;-62
2023/09/26 12:05:48;;;;;;;2.67;2.58;;;;;;;;;;5039205;28;20215;-62
2023/09/26 12:08:16;;;;;;;2.65;2.47;;;;;;;;;;5027558;28;20646;-63
2023/09/26 12:10:44;;;;;;;2.60;2.40;;;;;;;;;;5044000;28;20218;-63
2023/09/26 12:13:11;;;;;;;3.22;2.95;;;;;;;;;;5040024;28;20600;-62
2023/09/26 12:15:37;;;;;;;3.35;2.10;;;;;;;;;;5037655;28;20304;-62
2023/09/26 12:18:05;;;;;;;3.00;2.83;;;;;;;;;;5044465;28;20239;-64
2023/09/26 12:20:32;;;;;;;2.70;2.50;;;;;;;;;;5041715;28;20240;-61
2023/09/26 12:22:59;;;;;;;2.70;2.55;;;;;;;;;;5042850;28;20215;-61
2023/09/26 12:25:28;;;;;;;2.40;2.30;;;;;;;;;;5043479;28;20478;-62
2023/09/26 12:27:57;;;;;;;2.58;2.38;;;;;;;;;;5046247;28;20300;-63
2023/09/26 12:30:24;;;;;;;2.13;2.03;;;;;;;;;;5040209;28;20208;-62
2023/09/26 12:32:51;;;;;;;2.15;2.15;;;;;;;;;;5048355;28;20300;-62
2023/09/26 12:35:18;;;;;;;2.70;2.60;;;;;;;;;;5048819;28;20208;-62
2023/09/26 12:37:45;;;;;;;2.90;2.80;;;;;;;;;;5048957;28;20235;-62
2023/09/26 12:40:13;;;;;;;2.40;2.25;;;;;;;;;;5047113;28;20208;-63
2023/09/26 12:42:40;;;;;;;2.35;2.25;;;;;;;;;;5045606;28;20218;-63
2023/09/26 12:45:10;;;;;;;2.40;2.30;;;;;;;;;;5048822;28;20678;-62
2023/09/26 12:47:37;;;;;;;3.83;2.30;;;;;;;;;;5048763;28;20211;-63
2023/09/26 12:50:05;;;;;;;2.80;2.33;;;;;;;;;;5047605;28;20963;-63
2023/09/26 12:52:32;;;;;;;2.28;2.25;;;;;;;;;;5048889;28;20211;-63
2023/09/26 12:54:59;;;;;;;3.22;2.30;;;;;;;;;;5040711;28;20208;-63
2023/09/26 12:57:26;;;;;;;2.40;2.30;;;;;;;;;;5037098;28;20219;-63
2023/09/26 12:59:54;;;;;;;3.35;2.58;;;;;;;;;;5047771;28;20944;-63
2023/09/26 13:02:23;;;;;;;2.47;2.38;;;;;;;;;;5048429;28;20203;-63
2023/09/26 13:04:50;;;;;;;2.72;2.47;;;;;;;;;;5048876;28;20260;-63
2023/09/26 13:07:17;;;;;;;2.10;2.10;;;;;;;;;;5048567;28;20207;-64
2023/09/26 13:09:44;;;;;;;2.22;2.13;;;;;;;;;;5048362;28;20597;-64
2023/09/26 13:12:11;;;;;;;2.10;2.00;;;;;;;;;;5047365;28;20212;-65
2023/09/26 13:14:38;;;;;;;2.10;2.00;;;;;;;;;;5048381;28;20444;-65
2023/09/26 13:17:06;;;;;;;1.90;1.90;;;;;;;;;;5048310;28;20247;-65
2023/09/26 13:19:34;;;;;;;2.20;2.00;;;;;;;;;;5032651;28;20247;-65
2023/09/26 13:22:01;;;;;;;2.35;2.25;;;;;;;;;;5047737;28;20674;-65
2023/09/26 13:24:28;;;;;;;2.97;1.83;;;;;;;;;;5047362;28;20216;-65
2023/09/26 13:26:55;;;;;;;2.35;2.15;;;;;;;;;;5048230;28;20211;-65
2023/09/26 13:29:24;;;;;;;2.20;2.20;;;;;;;;;;5042747;28;20298;-65
2023/09/26 13:31:51;;;;;;;3.42;1.98;;;;;;;;;;5036618;28;20216;-65
2023/09/26 13:34:18;;;;;;;2.30;2.20;;;;;;;;;;5029775;28;20398;-65
2023/09/26 13:36:47;;;;;;;1.80;1.80;;;;;;;;;;5048239;28;20235;-65
2023/09/26 13:39:14;;;;;;;1.67;1.63;;;;;;;;;;5046154;28;20231;-65
2023/09/26 13:41:41;;;;;;;2.13;2.03;;;;;;;;;;5047793;28;20211;-66
2023/09/26 13:44:08;;;;;;;2.00;1.90;;;;;;;;;;5046947;28;20877;-65
2023/09/26 13:46:35;;;;;;;1.88;1.88;;;;;;;;;;5031450;28;20192;-65
2023/09/26 13:49:03;;;;;;;2.38;2.03;;;;;;;;;;5047496;28;20235;-65
2023/09/26 13:51:30;;;;;;;4.10;2.40;;;;;;;;;;5046855;28;20697;-65
2023/09/26 13:53:58;;;;;;;6.82;2.42;;;;;;;;;;5047344;28;20211;-65
2023/09/26 13:56:25;;;;;;;1.95;1.80;;;;;;;;;;5046104;28;20199;-66
2023/09/26 13:58:53;;;;;;;2.78;1.88;;;;;;;;;;5046727;28;20217;-65
2023/09/26 14:01:20;;;;;;;2.28;2.17;;;;;;;;;;5047424;28;20199;-65
2023/09/26 14:03:47;;;;;;;1.92;1.92;;;;;;;;;;5047667;28;20211;-66
2023/09/26 14:06:14;;;;;;;2.80;1.75;;;;;;;;;;5046536;28;20853;-65
2023/09/26 14:08:41;;;;;;;2.00;1.90;;;;;;;;;;5047136;28;20214;-65
2023/09/26 14:11:11;;;;;;;3.10;2.50;;;;;;;;;;5047271;28;20204;-66
2023/09/26 14:13:38;;;;;;;2.30;2.20;;;;;;;;;;5046940;28;20239;-67
2023/09/26 14:16:05;;;;;;;2.58;2.45;;;;;;;;;;5046902;28;20216;-66
2023/09/26 14:18:34;;;;;;;2.10;2.00;;;;;;;;;;5046960;28;20255;-66
2023/09/26 14:21:03;;;;;;;5.22;1.73;;;;;;;;;;5046480;28;20717;-65
2023/09/26 14:23:30;;;;;;;2.38;1.88;;;;;;;;;;5047417;28;20219;-67
2023/09/26 14:25:58;;;;;;;2.20;2.10;;;;;;;;;;5044839;28;20212;-66
2023/09/26 14:28:27;;;;;;;2.08;1.95;;;;;;;;;;5046721;28;20206;-66
2023/09/26 14:30:54;;;;;;;2.20;2.10;;;;;;;;;;5046457;28;20658;-67
2023/09/26 14:33:21;;;;;;;2.95;2.30;;;;;;;;;;5046350;28;20230;-65
2023/09/26 14:35:48;;;;;;;2.13;2.13;;;;;;;;;;5046757;28;20215;-66
2023/09/26 14:38:15;;;;;;;1.90;1.90;;;;;;;;;;5046583;28;20242;-66
2023/09/26 14:40:42;;;;;;;2.10;2.10;;;;;;;;;;5044376;28;20207;-66
2023/09/26 14:43:10;;;;;;;2.55;2.40;;;;;;;;;;5046724;28;20207;-66
2023/09/26 14:45:38;;;;;;;1.98;1.85;;;;;;;;;;5046911;28;20216;-66